Airfield :
LOGIN :

Register | Disclaimer

   EN    FR    IT 

 










Legend :    VFR   Marginal VFR   IFR   Intensive IFR   Very Intensive IFR
Visi :
Ceiling :
>= 8 km
>= 3000ft
5 to 8 km
1000 to 3000 ft
1500m to 5 km
500 to 1000 ft
800 to 1500m
200 to 500 ft
< 800m
< 200 ft
Symbols :   Thunderstorms  Fog  Heavy snow  Heavy precipitations  Wind > 20 kt
SIGMETs :     Misc.  Thunderstorms  Icing  Turbulence  Mountain Waves  Volcanic Ashes






- Airport Elevation : 93 ft
- IATA code : HDF


EDAH - Heringsdorf

CURRENT METAR :
  • 021350Z 33009KT 300V360 9999 FEW024 03/M02 Q1017

EXPIRED METARs :
  • 021320Z 33008KT 270V010 9999 SCT024 04/M02 Q1016
  • 021250Z 33009KT 280V010 9999 BKN026 03/M02 Q1016
  • 021220Z 33009G20KT 300V020 9999 BKN025 BKN029 03/M02 Q1016
  • 021150Z 33009KT 270V020 9999 SCT026 BKN033 03/M01 Q1015

TAF TAF EDAH
Valid from the 02 at 12:00 until the 02 at 21:00 UTC


021100Z 0212/0221 33008KT 9999 SCT020
BECMG 0215/0218 VRB03KT



MET'MAP, your aeronautical weather chart ! - Copyright ORBIFLY December 2007 - Disclaimer

ORBIFLY MET'MAP TEAM :

Programming & Development : Alexandra Zaïnal
Original concept : Baudouin d'Aumeries
Technical & hardware support : Manuel Goepfert
Assistance : Marc-Olivier Méhu




SOURCES & CREDITS :

   NOAA